Smithville, Tennessee
Current Conditions -  °F | °C
As of 8:55 AM on Monday 22 Dec 2014 (Local Time) from KSRB Reporting Station
Overcast Overcast  
Wind Chill: 45°   Ceiling: 1800
Heat Index: 48°   Visibility: 10mi
Dew Point: 43°   Wind: 8mph
Humidity: 82%   Direction: 170°S
Pressure: 29.95"   Gusts: NA
Location:  35.96°N, 85.81°W
Report Text: KSRB 221455Z AUTO 17007KT 10SM OVC018 09/06 A2995 RMK
Loading
Personal Weather Stations






























Interactive Weather Map New forecast layout! Learn more

10-Day Weather Forecast

Advertisements
Track Severe Weather on mobile